Bhubaneshwar Airport
VEBS : now visible

Airfield :











YOU CAN JOIN US ON...

 
LOGIN :

Register | Disclaimer

   EN    FR    IT 

 









Legend :    VFR   Marginal VFR   IFR   Intensive IFR   Very Intensive IFR
Visi :
Ceiling :
>= 8 km
>= 3000ft
5 to 8 km
1000 to 3000 ft
1500m to 5 km
500 to 1000 ft
800 to 1500m
200 to 500 ft
< 800m
< 200 ft
Symbols :   Thunderstorms  Fog  Heavy snow  Heavy precipitations  Wind > 20 kt






- Airport Elevation : 138 ft
- IATA code : BBI


VEBS - Bhubaneshwar

CURRENT METAR :
  • 231400Z 19005KT 4000 HZ FEW020 SCT100 32/19 Q1006 NOSIG

EXPIRED METARs :
  • 231330Z 18005KT 4500 HZ FEW020 SCT100 33/19 Q1006 NOSIG
  • 231300Z 17008KT 5000 HZ FEW020 SCT100 34/20 Q1005 NOSIG
  • 231230Z 17009KT 5000 HZ FEW020 SCT100 35/19 Q1005 NOSIG
  • 231200Z 10007KT 5000 HZ FEW020 SCT100 37/17 Q1005 NOSIG
  • 231130Z 02004KT 5000 HZ FEW020 SCT100 38/17 Q1005 NOSIG
  • 231100Z 01006KT 5000 HZ FEW018 SCT100 38/17 Q1004 NOSIG
  • 231030Z 34005KT 5000 HZ FEW018 SCT100 39/17 Q1004 NOSIG
  • 231000Z 01008KT 5000 HZ FEW018 SCT100 39/17 Q1004 NOSIG
  • 230930Z 04006KT 5000 HZ FEW018 SCT100 39/17 Q1005 NOSIG

TAF TAF VEBS
Valid from the 23 at 12:00 until the 24 at 18:00 UTC


231100Z 2312/2418 01003KT 5000 HZ FEW020 SCT100
BECMG 2313/1315 4000 HZ SCT100
BECMG 2323/1401 3000 HZ FEW020
BECMG 2404/2406 5000 HZ FEW020
BECMG 2413/2415 4000 HZ SCT018
VECF FIR / Asia



MET'MAP, your aeronautical weather chart ! - Copyright ORBIFLY December 2007 - Disclaimer

ORBIFLY MET'MAP TEAM :

Programming & Development : Alexandra Zaïnal
Original concept : Baudouin d'Aumeries
Technical & hardware support : Manuel Goepfert
Assistance : Marc-Olivier Méhu




SOURCES & CREDITS :

   NOAA       Earth
Advisory